Time;durP1;ratioP1;P1;durP2;ratioP2;P2;SDS_P1;SDS_P2;PMS_P1;PMS_P2;Temp;Humidity;BMP_temperature;BMP_pressure;BME280_temperature;BME280_humidity;BME280_pressure;Samples;Min_cycle;Max_cycle;Signal;HPM_P1;HPM_P2
2022/04/02 00:00:40;;;;;;;21.10;10.18;;;;;;;;;;5079563;28;20044;-80
2022/04/02 00:03:25;;;;;;;18.25;9.98;;;;;;;;;;5099929;28;20044;-80
2022/04/02 00:06:11;;;;;;;19.70;8.95;;;;;;;;;;5095906;28;20052;-82
2022/04/02 00:08:56;;;;;;;13.23;7.47;;;;;;;;;;5094207;28;20147;-82
2022/04/02 00:11:43;;;;;;;7.78;4.95;;;;;;;;;;5093723;28;20396;-83
2022/04/02 00:14:29;;;;;;;7.30;5.28;;;;;;;;;;5093522;28;20044;-83
2022/04/02 00:17:14;;;;;;;9.73;5.60;;;;;;;;;;5094075;28;20481;-81
2022/04/02 00:20:00;;;;;;;16.52;6.35;;;;;;;;;;5093616;28;20040;-81
2022/04/02 00:25:49;;;;;;;12.05;7.30;;;;;;;;;;5093453;28;20048;-84
2022/04/02 00:28:36;;;;;;;15.00;8.27;;;;;;;;;;5096279;28;20404;-82
2022/04/02 00:31:22;;;;;;;20.60;10.48;;;;;;;;;;5101217;28;20465;-81
2022/04/02 00:34:08;;;;;;;22.23;11.07;;;;;;;;;;5097236;28;20040;-81
2022/04/02 00:36:53;;;;;;;17.65;8.88;;;;;;;;;;5103832;28;20404;-83
2022/04/02 00:39:38;;;;;;;23.00;11.20;;;;;;;;;;5082230;28;20040;-82
2022/04/02 00:42:23;;;;;;;16.73;9.88;;;;;;;;;;5088660;28;20044;-81
2022/04/02 00:45:09;;;;;;;17.33;9.98;;;;;;;;;;5097375;28;20055;-82
2022/04/02 00:47:54;;;;;;;17.33;8.02;;;;;;;;;;5088418;28;20056;-81
2022/04/02 00:50:40;;;;;;;12.27;6.47;;;;;;;;;;5097017;28;20060;-80
2022/04/02 00:53:35;;;;;;;17.88;6.97;;;;;;;;;;5096980;28;20048;-82
2022/04/02 00:56:21;;;;;;;16.17;7.40;;;;;;;;;;5088119;28;20048;-82
2022/04/02 00:59:08;;;;;;;18.48;8.38;;;;;;;;;;5102712;28;20043;-83
2022/04/02 01:01:54;;;;;;;14.43;7.03;;;;;;;;;;5088183;28;20048;-81
2022/04/02 01:04:41;;;;;;;21.02;8.60;;;;;;;;;;5096302;28;20036;-83
2022/04/02 01:07:30;;;;;;;13.77;7.60;;;;;;;;;;5088327;28;20047;-82
2022/04/02 01:10:20;;;;;;;11.45;6.65;;;;;;;;;;5096486;28;20048;-82
2022/04/02 01:13:08;;;;;;;11.27;6.50;;;;;;;;;;5088378;28;20044;-81
2022/04/02 01:15:53;;;;;;;9.73;5.63;;;;;;;;;;5087800;28;20051;-82
2022/04/02 01:18:39;;;;;;;9.90;6.45;;;;;;;;;;5087873;28;20056;-81
2022/04/02 01:21:26;;;;;;;9.50;6.22;;;;;;;;;;5102266;28;20047;-81
2022/04/02 01:24:15;;;;;;;8.20;5.65;;;;;;;;;;5088229;28;20048;-83
2022/04/02 01:27:02;;;;;;;12.35;6.60;;;;;;;;;;5101985;28;20044;-84
2022/04/02 01:29:48;;;;;;;13.43;7.97;;;;;;;;;;5073704;28;20040;-84
2022/04/02 01:32:34;;;;;;;7.40;5.30;;;;;;;;;;5097028;28;20040;-82
2022/04/02 01:35:27;;;;;;;8.40;4.82;;;;;;;;;;5102317;28;20044;-82
2022/04/02 01:38:25;;;;;;;6.93;4.43;;;;;;;;;;5087971;28;20043;-82
2022/04/02 01:41:12;;;;;;;7.75;5.10;;;;;;;;;;5101548;28;20040;-84
2022/04/02 01:43:58;;;;;;;10.35;5.40;;;;;;;;;;5087285;28;20048;-83
2022/04/02 01:46:44;;;;;;;13.02;6.15;;;;;;;;;;5101520;28;20048;-82
2022/04/02 01:49:30;;;;;;;15.85;9.63;;;;;;;;;;5095918;28;20051;-83
2022/04/02 01:52:20;;;;;;;18.20;9.05;;;;;;;;;;5101575;28;20051;-81
2022/04/02 01:55:07;;;;;;;12.90;8.50;;;;;;;;;;5073028;28;20044;-83
2022/04/02 01:57:54;;;;;;;9.35;6.40;;;;;;;;;;5100974;28;20048;-81
2022/04/02 02:00:57;;;;;;;8.20;5.68;;;;;;;;;;5087034;28;20044;-82
2022/04/02 02:03:44;;;;;;;8.35;6.03;;;;;;;;;;5086832;28;20048;-82
2022/04/02 02:06:31;;;;;;;8.98;6.10;;;;;;;;;;5101117;28;20059;-82
2022/04/02 02:09:17;;;;;;;9.85;6.22;;;;;;;;;;5086990;28;20044;-81
2022/04/02 02:12:15;;;;;;;11.23;5.70;;;;;;;;;;5086376;28;20036;-80
2022/04/02 02:15:22;;;;;;;16.55;7.78;;;;;;;;;;5101755;28;20111;-81
2022/04/02 02:18:17;;;;;;;16.65;9.05;;;;;;;;;;5086480;28;20048;-80
2022/04/02 02:21:03;;;;;;;12.65;6.25;;;;;;;;;;5087108;28;20052;-82
2022/04/02 02:23:48;;;;;;;11.25;6.05;;;;;;;;;;5072256;28;20040;-81
2022/04/02 02:26:34;;;;;;;11.32;6.28;;;;;;;;;;5094778;28;20048;-82
2022/04/02 02:29:19;;;;;;;8.13;6.05;;;;;;;;;;5079638;28;20476;-82
2022/04/02 02:32:04;;;;;;;17.35;9.32;;;;;;;;;;5096379;28;20052;-81
2022/04/02 02:38:09;;;;;;;27.90;10.93;;;;;;;;;;5086119;28;20047;-82
2022/04/02 02:41:03;;;;;;;22.15;10.45;;;;;;;;;;5085683;28;20040;-83
2022/04/02 02:43:53;;;;;;;24.95;11.73;;;;;;;;;;5088771;28;20400;-81
2022/04/02 02:46:48;;;;;;;31.77;14.32;;;;;;;;;;5090830;28;20043;-81
2022/04/02 02:49:43;;;;;;;30.20;13.02;;;;;;;;;;5087962;28;20112;-81
2022/04/02 02:52:34;;;;;;;26.15;12.15;;;;;;;;;;5086912;28;20472;-81
2022/04/02 02:55:20;;;;;;;14.55;7.28;;;;;;;;;;5086270;28;20043;-82
2022/04/02 02:58:05;;;;;;;13.48;7.85;;;;;;;;;;5100067;28;20416;-81
2022/04/02 03:00:51;;;;;;;18.98;9.45;;;;;;;;;;5093998;28;20036;-81
2022/04/02 03:03:41;;;;;;;16.02;9.68;;;;;;;;;;5085868;28;20400;-82
2022/04/02 03:06:31;;;;;;;21.15;11.98;;;;;;;;;;5099605;28;20056;-82
2022/04/02 03:09:16;;;;;;;16.52;9.57;;;;;;;;;;5085768;28;20476;-82
2022/04/02 03:12:04;;;;;;;14.18;8.55;;;;;;;;;;5085918;28;20040;-81
2022/04/02 03:14:51;;;;;;;10.73;7.38;;;;;;;;;;5085297;28;20040;-80
2022/04/02 03:17:38;;;;;;;11.40;8.32;;;;;;;;;;5085842;28;20047;-82
2022/04/02 03:20:24;;;;;;;14.90;9.00;;;;;;;;;;5085575;28;20044;-83
2022/04/02 03:23:09;;;;;;;15.32;8.40;;;;;;;;;;5086041;28;20461;-80
2022/04/02 03:25:55;;;;;;;11.52;7.65;;;;;;;;;;5085692;28;20047;-80
2022/04/02 03:28:43;;;;;;;12.55;7.80;;;;;;;;;;5085137;28;20039;-81
2022/04/02 03:31:30;;;;;;;13.95;7.65;;;;;;;;;;5082474;28;20048;-81
2022/04/02 03:34:16;;;;;;;11.18;7.28;;;;;;;;;;5099572;28;20040;-79
2022/04/02 03:37:05;;;;;;;13.90;8.52;;;;;;;;;;5085240;28;20044;-80
2022/04/02 03:39:52;;;;;;;13.40;7.70;;;;;;;;;;5094005;28;20048;-81
2022/04/02 03:42:37;;;;;;;14.52;8.10;;;;;;;;;;5093697;28;20044;-82
2022/04/02 03:45:27;;;;;;;11.50;7.30;;;;;;;;;;5085748;28;20040;-82
2022/04/02 03:48:14;;;;;;;12.23;7.82;;;;;;;;;;5099512;28;20052;-82
2022/04/02 03:51:02;;;;;;;17.60;7.57;;;;;;;;;;5085218;28;20484;-82
2022/04/02 03:53:47;;;;;;;13.80;8.05;;;;;;;;;;5085447;28;20048;-81
2022/04/02 03:56:34;;;;;;;12.25;8.60;;;;;;;;;;5077720;28;20049;-82
2022/04/02 03:59:24;;;;;;;13.25;8.70;;;;;;;;;;5081825;28;20044;-82
2022/04/02 04:02:13;;;;;;;12.05;8.35;;;;;;;;;;5086108;28;20481;-82
2022/04/02 04:04:59;;;;;;;14.02;8.85;;;;;;;;;;5088271;28;20094;-82
2022/04/02 04:07:49;;;;;;;12.05;8.20;;;;;;;;;;5087639;28;20044;-82
2022/04/02 04:10:35;;;;;;;14.25;9.02;;;;;;;;;;5088637;28;20047;-81
2022/04/02 04:13:20;;;;;;;24.45;13.63;;;;;;;;;;5088889;28;20044;-82
2022/04/02 04:16:08;;;;;;;19.75;11.00;;;;;;;;;;5103010;28;20048;-81
2022/04/02 04:18:55;;;;;;;22.77;10.13;;;;;;;;;;5103090;28;20392;-82
2022/04/02 04:21:40;;;;;;;16.70;10.50;;;;;;;;;;5095133;28;20039;-82
2022/04/02 04:24:30;;;;;;;10.48;6.25;;;;;;;;;;5091476;28;20044;-82
2022/04/02 04:27:19;;;;;;;13.85;6.93;;;;;;;;;;5100806;28;20052;-83
2022/04/02 04:30:06;;;;;;;3.67;2.17;;;;;;;;;;5088270;28;20044;-81
2022/04/02 04:32:52;;;;;;;5.40;2.60;;;;;;;;;;5088701;28;20048;-81
2022/04/02 04:35:38;;;;;;;2.78;1.67;;;;;;;;;;5080137;28;20044;-82
2022/04/02 04:38:23;;;;;;;9.32;5.47;;;;;;;;;;5088964;28;20043;-80
2022/04/02 04:41:09;;;;;;;23.95;15.50;;;;;;;;;;5101537;28;20045;-81
2022/04/02 04:43:54;;;;;;;18.58;11.77;;;;;;;;;;5100449;28;20476;-81
2022/04/02 04:46:49;;;;;;;16.98;10.85;;;;;;;;;;5100970;28;20044;-81
2022/04/02 04:49:36;;;;;;;15.15;8.50;;;;;;;;;;5088306;28;20392;-81
2022/04/02 04:52:25;;;;;;;10.70;6.45;;;;;;;;;;5087905;28;20039;-81
2022/04/02 04:55:10;;;;;;;12.65;7.63;;;;;;;;;;5087710;28;20055;-82
2022/04/02 04:57:57;;;;;;;10.45;6.70;;;;;;;;;;5087789;28;20488;-82
2022/04/02 05:00:47;;;;;;;9.25;5.65;;;;;;;;;;5087859;28;20472;-81
2022/04/02 05:03:34;;;;;;;8.30;4.75;;;;;;;;;;5088091;28;20043;-81
2022/04/02 05:06:22;;;;;;;12.15;7.53;;;;;;;;;;5101991;28;20048;-82
2022/04/02 05:09:13;;;;;;;18.30;9.25;;;;;;;;;;5096595;28;20043;-82
2022/04/02 05:12:01;;;;;;;10.30;6.20;;;;;;;;;;5096649;28;20044;-83
2022/04/02 05:14:49;;;;;;;8.30;5.20;;;;;;;;;;5101330;28;20404;-81
2022/04/02 05:17:38;;;;;;;8.65;4.90;;;;;;;;;;5087698;28;20044;-81
2022/04/02 05:20:25;;;;;;;11.23;5.75;;;;;;;;;;5101710;28;20044;-82
2022/04/02 05:23:11;;;;;;;20.90;8.50;;;;;;;;;;5096572;28;20040;-83
2022/04/02 05:25:58;;;;;;;4.75;2.60;;;;;;;;;;5088646;28;20048;-83
2022/04/02 05:28:47;;;;;;;8.80;5.85;;;;;;;;;;5104422;28;20048;-83
2022/04/02 05:31:33;;;;;;;9.57;5.15;;;;;;;;;;5103962;28;20048;-82
2022/04/02 05:34:19;;;;;;;3.67;2.63;;;;;;;;;;5104953;28;20048;-82
2022/04/02 05:37:04;;;;;;;3.20;2.38;;;;;;;;;;5088882;28;20048;-83
2022/04/02 05:39:50;;;;;;;2.92;1.10;;;;;;;;;;5097844;28;20055;-84
2022/04/02 05:42:35;;;;;;;3.40;1.65;;;;;;;;;;5101913;28;20419;-82
2022/04/02 05:45:21;;;;;;;3.50;2.50;;;;;;;;;;5096645;28;20365;-80
2022/04/02 05:48:06;;;;;;;2.90;1.77;;;;;;;;;;5088043;28;20040;-82
2022/04/02 05:50:52;;;;;;;1.83;1.50;;;;;;;;;;5103082;28;20052;-83
2022/04/02 05:53:38;;;;;;;2.33;1.90;;;;;;;;;;5103580;28;20044;-83
2022/04/02 05:56:23;;;;;;;2.00;1.38;;;;;;;;;;5096025;28;20040;-82
2022/04/02 05:59:09;;;;;;;4.05;2.38;;;;;;;;;;5093096;28;20441;-83
2022/04/02 06:01:54;;;;;;;4.20;2.17;;;;;;;;;;5074998;28;20040;-82
2022/04/02 06:04:40;;;;;;;5.03;3.95;;;;;;;;;;5088111;28;20040;-82
2022/04/02 06:07:25;;;;;;;4.90;2.97;;;;;;;;;;5099813;28;20056;-83
2022/04/02 06:10:12;;;;;;;7.47;3.75;;;;;;;;;;5108118;28;20044;-82
2022/04/02 06:12:57;;;;;;;5.50;2.67;;;;;;;;;;5108845;28;20044;-83
2022/04/02 06:15:42;;;;;;;5.00;2.72;;;;;;;;;;5107086;28;20047;-83
2022/04/02 06:18:28;;;;;;;4.97;2.65;;;;;;;;;;5096895;28;20477;-82
2022/04/02 06:21:13;;;;;;;3.67;2.25;;;;;;;;;;5104116;28;20044;-84
2022/04/02 06:24:04;;;;;;;4.03;2.42;;;;;;;;;;5106507;28;20044;-82
2022/04/02 06:26:49;;;;;;;2.00;1.15;;;;;;;;;;5108229;28;20048;-84
2022/04/02 06:29:34;;;;;;;3.05;1.90;;;;;;;;;;5104148;28;20044;-83
2022/04/02 06:32:22;;;;;;;2.45;1.70;;;;;;;;;;5095064;28;20056;-80
2022/04/02 06:35:09;;;;;;;4.00;2.97;;;;;;;;;;5100670;28;20036;-81
2022/04/02 06:37:55;;;;;;;4.63;2.70;;;;;;;;;;5100175;28;20040;-82
2022/04/02 06:40:41;;;;;;;2.53;1.40;;;;;;;;;;5094806;28;20036;-82
2022/04/02 06:43:26;;;;;;;1.75;1.50;;;;;;;;;;5101721;28;20048;-82
2022/04/02 06:46:23;;;;;;;4.63;2.95;;;;;;;;;;5085373;28;20044;-84
2022/04/02 06:49:09;;;;;;;6.22;3.80;;;;;;;;;;5094624;28;20032;-82
2022/04/02 06:51:55;;;;;;;4.28;2.08;;;;;;;;;;5091592;28;20431;-83
2022/04/02 06:54:40;;;;;;;3.28;1.77;;;;;;;;;;5092519;28;20044;-83
2022/04/02 06:57:27;;;;;;;2.95;1.63;;;;;;;;;;5088644;28;20048;-82
2022/04/02 07:00:12;;;;;;;2.38;1.30;;;;;;;;;;5088789;28;20052;-82
2022/04/02 07:02:57;;;;;;;3.90;1.77;;;;;;;;;;5094245;28;20044;-81
2022/04/02 07:05:43;;;;;;;1.55;1.10;;;;;;;;;;5094367;28;20048;-83
2022/04/02 07:08:29;;;;;;;3.72;1.00;;;;;;;;;;5100922;28;20048;-82
2022/04/02 07:11:14;;;;;;;2.13;1.20;;;;;;;;;;5094685;28;20044;-83
2022/04/02 07:14:00;;;;;;;2.00;1.50;;;;;;;;;;5100553;28;20047;-80
2022/04/02 07:16:45;;;;;;;3.33;2.00;;;;;;;;;;5101027;28;20400;-83
2022/04/02 07:19:32;;;;;;;3.00;1.52;;;;;;;;;;5094141;28;20035;-82
2022/04/02 07:22:20;;;;;;;2.05;1.10;;;;;;;;;;5101341;28;20048;-83
2022/04/02 07:25:06;;;;;;;2.42;1.60;;;;;;;;;;5093329;28;20043;-84
2022/04/02 07:27:53;;;;;;;2.08;1.15;;;;;;;;;;5093815;28;20047;-82
2022/04/02 07:30:39;;;;;;;1.63;1.23;;;;;;;;;;5093945;28;20052;-83
2022/04/02 07:33:25;;;;;;;1.08;0.98;;;;;;;;;;5085508;28;20048;-81
2022/04/02 07:36:29;;;;;;;2.33;1.30;;;;;;;;;;5102514;28;20047;-83
2022/04/02 07:39:21;;;;;;;3.13;2.05;;;;;;;;;;5107611;28;20416;-81
2022/04/02 07:42:15;;;;;;;5.75;3.30;;;;;;;;;;5106967;28;20036;-83
2022/04/02 07:45:12;;;;;;;1.98;1.40;;;;;;;;;;5107956;28;20472;-83
2022/04/02 07:47:58;;;;;;;15.73;9.07;;;;;;;;;;5100484;28;20472;-83
2022/04/02 07:50:45;;;;;;;4.40;3.13;;;;;;;;;;5108080;28;20048;-82
2022/04/02 07:53:39;;;;;;;5.70;3.78;;;;;;;;;;5100819;28;20107;-83
2022/04/02 07:56:28;;;;;;;8.05;5.85;;;;;;;;;;5100947;28;20036;-83
2022/04/02 07:59:22;;;;;;;4.65;4.10;;;;;;;;;;5106207;28;20048;-83
2022/04/02 08:02:36;;;;;;;4.32;2.95;;;;;;;;;;5107110;28;20047;-84
2022/04/02 08:05:15;;;;;;;5.30;2.30;;;;;;;;;;5100638;28;20048;-82
2022/04/02 08:08:01;;;;;;;6.05;3.45;;;;;;;;;;5100614;28;20052;-82
2022/04/02 08:10:54;;;;;;;4.05;2.30;;;;;;;;;;5096500;28;20040;-83
2022/04/02 08:13:41;;;;;;;2.20;1.70;;;;;;;;;;5115260;28;20047;-81
2022/04/02 08:16:27;;;;;;;4.03;2.47;;;;;;;;;;5109871;28;20048;-83
2022/04/02 08:19:12;;;;;;;2.78;1.80;;;;;;;;;;5101751;28;20048;-83
2022/04/02 08:21:57;;;;;;;2.00;1.23;;;;;;;;;;5100087;28;20040;-83
2022/04/02 08:24:44;;;;;;;2.70;1.80;;;;;;;;;;5099961;28;20036;-84
2022/04/02 08:27:38;;;;;;;2.92;1.30;;;;;;;;;;5107088;28;20052;-84
2022/04/02 08:30:37;;;;;;;2.38;1.70;;;;;;;;;;5101798;28;20040;-84
2022/04/02 08:33:36;;;;;;;1.42;1.33;;;;;;;;;;5107888;28;20480;-87
2022/04/02 08:36:29;;;;;;;1.88;1.10;;;;;;;;;;5085047;28;20047;-83
2022/04/02 08:39:26;;;;;;;2.67;1.75;;;;;;;;;;5106778;28;20048;-85
2022/04/02 08:42:45;;;;;;;2.30;1.70;;;;;;;;;;5099989;28;20040;-84
2022/04/02 08:45:33;;;;;;;3.40;1.60;;;;;;;;;;5100539;28;20051;-86
2022/04/02 08:48:28;;;;;;;2.55;1.85;;;;;;;;;;5097707;28;20048;-86
2022/04/02 08:55:12;;;;;;;2.38;1.40;;;;;;;;;;4956419;28;20048;-82
2022/04/02 08:58:02;;;;;;;3.00;1.15;;;;;;;;;;4964105;28;20043;-82
2022/04/02 09:01:09;;;;;;;2.30;1.60;;;;;;;;;;4963807;28;20043;-81
2022/04/02 09:04:22;;;;;;;2.65;1.30;;;;;;;;;;4957854;29;20043;-82
2022/04/02 09:07:44;;;;;;;2.88;1.30;;;;;;;;;;4963685;28;20047;-81
2022/04/02 09:11:05;;;;;;;3.58;0.88;;;;;;;;;;4963698;28;20051;-81
2022/04/02 09:14:21;;;;;;;4.35;1.30;;;;;;;;;;4962326;28;20051;-83
2022/04/02 09:17:33;;;;;;;5.53;1.33;;;;;;;;;;4962053;28;20047;-83
2022/04/02 09:20:40;;;;;;;7.18;2.60;;;;;;;;;;4962381;28;20400;-83
2022/04/02 09:24:04;;;;;;;3.88;2.20;;;;;;;;;;4957729;29;20051;-84
2022/04/02 09:27:30;;;;;;;6.10;4.53;;;;;;;;;;4963586;28;20039;-84
2022/04/02 09:30:34;;;;;;;2.78;2.10;;;;;;;;;;4943349;28;20051;-85
2022/04/02 09:33:43;;;;;;;6.25;3.83;;;;;;;;;;4962719;28;20043;-83
2022/04/02 09:37:10;;;;;;;2.63;1.40;;;;;;;;;;4943218;29;20047;-82
2022/04/02 09:40:09;;;;;;;2.28;1.20;;;;;;;;;;4964095;28;20391;-84
2022/04/02 09:43:07;;;;;;;3.95;1.42;;;;;;;;;;4957355;29;20047;-84
2022/04/02 09:46:18;;;;;;;1.38;1.10;;;;;;;;;;4963699;28;20047;-82
2022/04/02 09:49:24;;;;;;;1.77;1.10;;;;;;;;;;4943387;28;20047;-87
2022/04/02 09:52:33;;;;;;;2.28;1.20;;;;;;;;;;4957102;29;20051;-88
2022/04/02 09:55:30;;;;;;;1.52;0.80;;;;;;;;;;4962231;28;20046;-87
2022/04/02 09:58:37;;;;;;;0.75;0.75;;;;;;;;;;4962360;28;20051;-84
2022/04/02 10:02:03;;;;;;;1.48;0.80;;;;;;;;;;4963075;28;20495;-87
2022/04/02 10:04:59;;;;;;;1.33;0.70;;;;;;;;;;4963278;28;20054;-85
2022/04/02 10:08:02;;;;;;;3.17;0.98;;;;;;;;;;4957211;29;20047;-83
2022/04/02 10:10:50;;;;;;;9.55;1.35;;;;;;;;;;4956494;29;20055;-85
2022/04/02 10:13:35;;;;;;;1.65;0.77;;;;;;;;;;4961798;28;20399;-84
2022/04/02 10:16:23;;;;;;;1.08;0.52;;;;;;;;;;4961719;28;20043;-84
2022/04/02 10:19:09;;;;;;;2.08;0.60;;;;;;;;;;4959426;28;20043;-86
2022/04/02 10:22:02;;;;;;;1.30;0.75;;;;;;;;;;4961995;28;20047;-85
2022/04/02 10:24:49;;;;;;;1.88;0.70;;;;;;;;;;4961825;28;20043;-85
2022/04/02 10:27:36;;;;;;;1.75;1.27;;;;;;;;;;4955979;29;20043;-86
2022/04/02 10:30:24;;;;;;;2.13;0.88;;;;;;;;;;4956348;29;20055;-86
2022/04/02 10:33:26;;;;;;;1.48;0.60;;;;;;;;;;4962892;28;20043;-88
2022/04/02 10:36:13;;;;;;;2.28;0.88;;;;;;;;;;4962264;28;20492;-84
2022/04/02 10:38:58;;;;;;;3.92;0.82;;;;;;;;;;4956067;29;20051;-85
2022/04/02 10:41:45;;;;;;;1.98;1.00;;;;;;;;;;4956703;29;20043;-85
2022/04/02 10:44:44;;;;;;;1.67;1.27;;;;;;;;;;4955979;29;20039;-84
2022/04/02 10:47:30;;;;;;;1.00;0.70;;;;;;;;;;4956557;29;20047;-84
2022/04/02 10:50:22;;;;;;;2.25;1.20;;;;;;;;;;4956403;29;20047;-83
2022/04/02 10:53:12;;;;;;;2.70;1.25;;;;;;;;;;4955791;29;20059;-83
2022/04/02 10:56:00;;;;;;;6.13;1.02;;;;;;;;;;4961618;28;20399;-83
2022/04/02 10:58:50;;;;;;;5.20;1.00;;;;;;;;;;4954660;29;20043;-84
2022/04/02 11:01:41;;;;;;;2.83;1.08;;;;;;;;;;4956244;29;20471;-86
2022/04/02 11:04:49;;;;;;;2.17;1.33;;;;;;;;;;4961305;28;20487;-85
2022/04/02 11:07:45;;;;;;;8.85;2.97;;;;;;;;;;4961214;28;20036;-83
2022/04/02 11:10:34;;;;;;;17.55;6.40;;;;;;;;;;4961061;28;20047;-82
2022/04/02 11:13:32;;;;;;;13.45;6.30;;;;;;;;;;4961783;28;20047;-84
2022/04/02 11:16:23;;;;;;;4.93;1.45;;;;;;;;;;4955242;29;20047;-85
2022/04/02 11:22:21;;;;;;;4.68;2.30;;;;;;;;;;4955774;29;20750;-84
2022/04/02 11:25:13;;;;;;;2.47;0.82;;;;;;;;;;4955952;29;20055;-84
2022/04/02 11:28:08;;;;;;;3.15;1.67;;;;;;;;;;4960897;28;20503;-85
2022/04/02 11:30:59;;;;;;;3.67;2.13;;;;;;;;;;4962689;28;20396;-84
2022/04/02 11:33:53;;;;;;;2.15;1.30;;;;;;;;;;4961117;28;20051;-85
2022/04/02 11:36:47;;;;;;;3.78;1.50;;;;;;;;;;4955216;29;20043;-85
2022/04/02 11:39:49;;;;;;;7.30;1.55;;;;;;;;;;4975213;29;20043;-85
2022/04/02 11:42:38;;;;;;;3.55;1.58;;;;;;;;;;4957276;29;20039;-84
2022/04/02 11:45:25;;;;;;;2.38;1.20;;;;;;;;;;4955985;29;20047;-84
2022/04/02 11:48:13;;;;;;;1.98;1.02;;;;;;;;;;4954301;29;20039;-86
2022/04/02 11:51:21;;;;;;;17.45;2.35;;;;;;;;;;4961085;28;20051;-85
2022/04/02 11:54:08;;;;;;;8.38;3.15;;;;;;;;;;4954783;28;20047;-85
2022/04/02 11:57:07;;;;;;;8.73;2.72;;;;;;;;;;4961273;28;20051;-86
2022/04/02 11:59:55;;;;;;;4.18;2.25;;;;;;;;;;4961979;29;20051;-84
2022/04/02 12:02:43;;;;;;;7.05;2.80;;;;;;;;;;4960952;29;20520;-83
2022/04/02 12:05:37;;;;;;;5.13;2.15;;;;;;;;;;4960792;28;20039;-85
2022/04/02 12:08:30;;;;;;;6.03;2.22;;;;;;;;;;4960577;28;20043;-85
2022/04/02 12:11:23;;;;;;;4.55;2.08;;;;;;;;;;4955065;29;20050;-83
2022/04/02 12:14:10;;;;;;;5.65;1.85;;;;;;;;;;4955322;29;20051;-84
2022/04/02 12:17:09;;;;;;;5.25;1.50;;;;;;;;;;4954600;29;20044;-87
2022/04/02 12:19:58;;;;;;;4.13;1.40;;;;;;;;;;4955942;29;20427;-85
2022/04/02 12:22:47;;;;;;;3.90;1.60;;;;;;;;;;4954643;28;20391;-84
2022/04/02 12:25:33;;;;;;;8.52;1.75;;;;;;;;;;4967457;28;20054;-88
2022/04/02 12:28:20;;;;;;;3.63;1.63;;;;;;;;;;4970778;28;20083;-86
2022/04/02 12:31:13;;;;;;;6.70;2.05;;;;;;;;;;4963974;28;20051;-84
2022/04/02 12:33:58;;;;;;;2.78;1.40;;;;;;;;;;4955313;29;20047;-85
2022/04/02 12:37:01;;;;;;;6.93;1.80;;;;;;;;;;4963624;28;20487;-84
2022/04/02 12:40:30;;;;;;;4.22;1.42;;;;;;;;;;4964395;28;20043;-83
2022/04/02 12:43:23;;;;;;;2.70;1.30;;;;;;;;;;4958244;29;20043;-85
2022/04/02 12:46:24;;;;;;;3.33;1.40;;;;;;;;;;4958249;29;20043;-84
2022/04/02 12:49:30;;;;;;;3.35;1.70;;;;;;;;;;4958509;29;20043;-82
2022/04/02 12:52:20;;;;;;;5.55;2.40;;;;;;;;;;4957776;29;20047;-86
2022/04/02 12:55:06;;;;;;;11.25;3.50;;;;;;;;;;4957109;29;20051;-84
2022/04/02 12:58:10;;;;;;;4.28;2.38;;;;;;;;;;4963274;28;20043;-85
2022/04/02 13:01:30;;;;;;;18.92;6.13;;;;;;;;;;4956685;29;20051;-88
2022/04/02 13:04:25;;;;;;;11.63;2.40;;;;;;;;;;4963592;28;20039;-85
2022/04/02 13:07:19;;;;;;;6.97;3.15;;;;;;;;;;4964517;28;20047;-84
2022/04/02 13:10:13;;;;;;;6.93;2.40;;;;;;;;;;4964192;28;20063;-82
2022/04/02 13:13:03;;;;;;;6.10;2.90;;;;;;;;;;4963055;28;20051;-84
2022/04/02 13:15:51;;;;;;;8.60;3.53;;;;;;;;;;4963998;28;20047;-84
2022/04/02 13:21:45;;;;;;;9.88;5.38;;;;;;;;;;4964610;28;20043;-84
2022/04/02 13:24:54;;;;;;;3.95;1.80;;;;;;;;;;4958303;29;20051;-86
2022/04/02 13:28:11;;;;;;;3.97;2.13;;;;;;;;;;4963354;28;20407;-85
2022/04/02 13:30:59;;;;;;;5.65;2.40;;;;;;;;;;4964244;28;20051;-85
2022/04/02 13:34:24;;;;;;;3.80;1.80;;;;;;;;;;4964237;28;20047;-87
2022/04/02 13:37:20;;;;;;;3.00;1.58;;;;;;;;;;4957904;29;20043;-83
2022/04/02 13:40:17;;;;;;;3.42;1.30;;;;;;;;;;4958774;29;20051;-87
2022/04/02 13:43:08;;;;;;;7.05;2.20;;;;;;;;;;4962944;28;20047;-85
2022/04/02 13:46:01;;;;;;;5.30;1.60;;;;;;;;;;4962500;28;20047;-87
2022/04/02 13:48:55;;;;;;;7.35;1.88;;;;;;;;;;4958158;29;20392;-87
2022/04/02 13:51:49;;;;;;;;;;;;;;;;;;4957573;29;20043;-83
2022/04/02 13:54:45;;;;;;;4.85;1.63;;;;;;;;;;4956818;29;19919;-82
2022/04/02 13:57:35;;;;;;;3.13;1.48;;;;;;;;;;4956741;29;20043;-86
2022/04/02 14:00:24;;;;;;;7.38;2.65;;;;;;;;;;4963458;28;20047;-83
2022/04/02 14:03:10;;;;;;;5.45;2.10;;;;;;;;;;4957387;29;20047;-85
2022/04/02 14:05:59;;;;;;;8.93;2.30;;;;;;;;;;4962703;28;20480;-86
2022/04/02 14:08:58;;;;;;;3.38;1.60;;;;;;;;;;4962291;28;20047;-86
2022/04/02 14:11:48;;;;;;;9.02;3.40;;;;;;;;;;4956534;29;20051;-85
2022/04/02 14:14:51;;;;;;;11.32;2.80;;;;;;;;;;4949074;28;20051;-86
2022/04/02 14:17:48;;;;;;;6.90;2.25;;;;;;;;;;4956883;29;20476;-85
2022/04/02 14:20:33;;;;;;;7.15;2.65;;;;;;;;;;4957087;29;20055;-84
2022/04/02 14:23:29;;;;;;;4.38;1.55;;;;;;;;;;4962199;28;20043;-84
2022/04/02 14:26:51;;;;;;;10.30;3.50;;;;;;;;;;4955528;29;20035;-82
2022/04/02 14:29:45;;;;;;;3.63;1.70;;;;;;;;;;4916272;29;20052;-85
2022/04/02 14:33:07;;;;;;;6.60;1.88;;;;;;;;;;4964317;28;20050;-85
2022/04/02 14:36:34;;;;;;;9.73;4.00;;;;;;;;;;4956661;29;20055;-85
2022/04/02 14:39:41;;;;;;;9.85;2.47;;;;;;;;;;4948164;28;20051;-83
2022/04/02 14:42:56;;;;;;;5.45;2.55;;;;;;;;;;4963663;28;20055;-84
2022/04/02 14:46:04;;;;;;;9.82;2.53;;;;;;;;;;4962490;28;20055;-83
2022/04/02 14:49:05;;;;;;;4.10;1.85;;;;;;;;;;4956047;29;20055;-85
2022/04/02 14:52:24;;;;;;;4.43;1.70;;;;;;;;;;4956402;29;20043;-85
2022/04/02 14:55:29;;;;;;;3.97;1.52;;;;;;;;;;4955738;29;20403;-84
2022/04/02 14:58:25;;;;;;;10.32;2.15;;;;;;;;;;4955748;29;20047;-83
2022/04/02 15:02:07;;;;;;;3.33;1.60;;;;;;;;;;4953656;28;20043;-84
2022/04/02 15:05:35;;;;;;;3.10;1.40;;;;;;;;;;4940982;29;20579;-83
2022/04/02 15:08:39;;;;;;;6.15;2.33;;;;;;;;;;4937598;28;20062;-83
2022/04/02 15:11:28;;;;;;;9.30;3.40;;;;;;;;;;4962075;28;20047;-86
2022/04/02 15:14:17;;;;;;;8.65;2.90;;;;;;;;;;4956339;29;20055;-83
2022/04/02 15:17:29;;;;;;;10.38;3.83;;;;;;;;;;4957372;29;20411;-82
2022/04/02 15:20:21;;;;;;;4.15;1.75;;;;;;;;;;4955270;29;20047;-82
2022/04/02 15:23:08;;;;;;;6.20;1.92;;;;;;;;;;4962088;28;20484;-84
2022/04/02 15:25:56;;;;;;;8.07;3.10;;;;;;;;;;4962741;28;20051;-85
2022/04/02 15:28:42;;;;;;;4.15;1.80;;;;;;;;;;4961965;28;20055;-83
2022/04/02 15:31:51;;;;;;;10.27;3.15;;;;;;;;;;4955778;29;20404;-84
2022/04/02 15:34:48;;;;;;;3.58;2.05;;;;;;;;;;4949357;29;20424;-85
2022/04/02 15:37:38;;;;;;;4.65;2.10;;;;;;;;;;4937455;29;20052;-83
2022/04/02 15:40:24;;;;;;;8.57;2.20;;;;;;;;;;4937053;29;20480;-84
2022/04/02 15:43:11;;;;;;;4.43;1.58;;;;;;;;;;4945409;29;20389;-85
2022/04/02 15:46:26;;;;;;;5.55;2.03;;;;;;;;;;4944372;29;20048;-81
2022/04/02 15:49:16;;;;;;;4.53;1.50;;;;;;;;;;4943341;29;20047;-84
2022/04/02 15:52:07;;;;;;;5.10;1.80;;;;;;;;;;4941339;29;20051;-85
2022/04/02 15:54:53;;;;;;;3.95;1.70;;;;;;;;;;4946050;29;20060;-81
2022/04/02 15:57:38;;;;;;;6.97;2.55;;;;;;;;;;4942197;29;20043;-82
2022/04/02 16:00:24;;;;;;;2.03;1.38;;;;;;;;;;4945115;29;20056;-82
2022/04/02 16:03:40;;;;;;;4.22;1.77;;;;;;;;;;4943759;29;20040;-82
2022/04/02 16:06:28;;;;;;;4.38;2.58;;;;;;;;;;4945284;29;20096;-83
2022/04/02 16:09:20;;;;;;;3.08;1.55;;;;;;;;;;4942043;29;20047;-83
2022/04/02 16:12:41;;;;;;;3.88;2.00;;;;;;;;;;4951243;29;20048;-82
2022/04/02 16:15:28;;;;;;;2.92;1.70;;;;;;;;;;4934191;29;20040;-83
2022/04/02 16:18:18;;;;;;;6.72;2.30;;;;;;;;;;4956586;29;20051;-82
2022/04/02 16:21:08;;;;;;;5.18;2.00;;;;;;;;;;4949290;29;20047;-81
2022/04/02 16:23:55;;;;;;;7.72;2.90;;;;;;;;;;4953459;29;20047;-80
2022/04/02 16:26:51;;;;;;;6.22;2.30;;;;;;;;;;4947689;29;20040;-81
2022/04/02 16:29:37;;;;;;;5.47;2.78;;;;;;;;;;4947587;29;20051;-80
2022/04/02 16:32:23;;;;;;;4.82;2.15;;;;;;;;;;4947631;29;20059;-80
2022/04/02 16:35:14;;;;;;;5.88;2.78;;;;;;;;;;4948009;29;20047;-82
2022/04/02 16:38:04;;;;;;;9.40;4.85;;;;;;;;;;4946850;29;20051;-82
2022/04/02 16:40:50;;;;;;;9.75;5.20;;;;;;;;;;4939784;29;20052;-81
2022/04/02 16:43:35;;;;;;;14.35;8.88;;;;;;;;;;4939730;29;20048;-82
2022/04/02 16:46:32;;;;;;;8.65;5.07;;;;;;;;;;4946348;29;20060;-80
2022/04/02 16:49:20;;;;;;;7.38;4.38;;;;;;;;;;4945173;29;20047;-83
2022/04/02 16:52:18;;;;;;;6.95;2.70;;;;;;;;;;4945576;29;20048;-83
2022/04/02 16:55:06;;;;;;;5.15;2.80;;;;;;;;;;4947213;29;20055;-82
2022/04/02 16:58:02;;;;;;;4.40;2.85;;;;;;;;;;4940228;29;20404;-84
2022/04/02 17:00:50;;;;;;;5.53;3.50;;;;;;;;;;4945249;29;20048;-82
2022/04/02 17:03:35;;;;;;;12.27;4.47;;;;;;;;;;4945406;29;20047;-85
2022/04/02 17:06:31;;;;;;;12.38;5.00;;;;;;;;;;4945841;29;20052;-83
2022/04/02 17:09:24;;;;;;;17.35;7.20;;;;;;;;;;4944872;29;20412;-84
2022/04/02 17:12:11;;;;;;;18.90;8.18;;;;;;;;;;4946214;29;20055;-82
2022/04/02 17:14:57;;;;;;;32.63;15.95;;;;;;;;;;4946130;29;20456;-83
2022/04/02 17:17:42;;;;;;;35.97;19.48;;;;;;;;;;4938901;29;20047;-83
2022/04/02 17:20:30;;;;;;;37.38;19.38;;;;;;;;;;4945526;29;20047;-82
2022/04/02 17:23:37;;;;;;;36.78;18.90;;;;;;;;;;4938654;29;20039;-82